Flight Track Log - Related Links

Times and Time Zones

All times are in EDT time to prevent confusion due to time zone crossing. See the SKW6306 flight status page for this flight to view local times or setup timezone preferences in your user account.

Time Position Orientation Groundspeed Altitude Reporting Facility
EDT Latitude Longitude Course Direction KTS MPH feet Rate Location/Type
Sun 02:34:58 PM 39.9500 -104.6833 11° North 219 252 8,300  Level Denver TRACON
Sun 02:35:58 PM 40.0167 -104.6667 11° North 268 308 9,800 1,700 Climbing Denver TRACON
Sun 02:36:58 PM 40.1000 -104.6833 351° North 284 327 11,700 2,050 Climbing Denver TRACON
Sun 02:37:58 PM 40.1833 -104.7000 351° North 264 304 13,900 1,911 Climbing Denver TRACON
Sun 02:39:13 PM 40.2753 -104.7278 347° North 294 338 16,000 1,664 Climbing Denver Center
Sun 02:40:15 PM 40.3553 -104.7478 349° North 293 337 17,700 1,403 Climbing Denver Center
Sun 02:41:17 PM 40.4453 -104.7686 350° North 309 356 18,900 1,306 Climbing Denver Center
Sun 02:42:19 PM 40.5289 -104.7903 349° North 304 350 20,400 1,306 Climbing Denver Center
Sun 02:43:21 PM 40.6222 -104.8119 350° North 317 365 21,600 968 Climbing Denver Center
Sun 02:44:23 PM 40.7100 -104.8325 350° North 321 369 22,400 871 Climbing Denver Center
Sun 02:45:25 PM 40.7964 -104.8528 350° North 311 358 23,400 1,016 Climbing Denver Center
Sun 02:46:27 PM 40.8953 -104.9017 340° North 329 379 24,500 871 Climbing Denver Center
Sun 02:47:29 PM 40.9803 -104.9439 339° North 337 388 25,200 726 Climbing Denver Center
Sun 02:48:31 PM 41.0828 -104.9947 340° North 347 399 26,000 768 Climbing Denver Center
Sun 02:49:34 PM 41.1700 -105.0364 340° North 348 400 26,800 745 Climbing Denver Center
Sun 02:50:48 PM 41.2875 -105.0958 339° North 353 406 27,700 618 Climbing Denver Center
Sun 02:51:50 PM 41.3761 -105.1403 339° North 356 410 28,200 532 Climbing Denver Center
Sun 02:52:52 PM 41.4831 -105.1942 339° North 366 421 28,800 532 Climbing Denver Center
Sun 02:53:54 PM 41.5750 -105.2381 340° North 368 423 29,300 484 Climbing Denver Center
Sun 02:54:56 PM 41.6906 -105.2592 352° North 372 428 29,800 484 Climbing Denver Center
Sun 02:55:58 PM 41.7900 -105.2786 352° North 376 433 30,300 481 Climbing Denver Center
Sun 02:57:00 PM 41.9386 -105.3039 352° North  Level FlightAware Approximate
Sun 02:57:38 PM 41.9528 -105.3094 352° North 375 432 31,100  Level Salt Lake Center
Sun 02:59:05 PM 42.1022 -105.3372 352° North 371 427 31,900 256 Climbing Denver Center
Sun 03:01:09 PM 42.3169 -105.3792 352° North 372 428 32,000 27 Climbing Denver Center
Sun 03:02:00 PM 42.5123 -105.4109 353° North  Level FlightAware Approximate
Sun 03:02:49 PM 42.4964 -105.4142 353° North 373 429 32,000  Level Salt Lake Center
Sun 03:03:51 PM 42.5958 -105.4333 352° North 374 430 32,000  Level Salt Lake Center
Sun 03:04:53 PM 42.7131 -105.4556 352° North 377 434 32,000  Level Salt Lake Center
Sun 03:06:00 PM 42.8286 -105.4773 352° North  Level FlightAware Approximate
Sun 03:06:19 PM 42.8647 -105.4839 352° North 382 440 32,000  Level Denver Center
Sun 03:07:21 PM 42.9675 -105.5028 352° North 386 444 32,000  Level Denver Center
Sun 03:08:23 PM 43.0689 -105.5242 351° North 385 443 32,000  Level Denver Center
Sun 03:09:25 PM 43.1900 -105.5467 352° North 391 450 32,000  Level Denver Center
Sun 03:10:27 PM 43.2925 -105.5667 352° North 389 448 32,000  Level Denver Center
Sun 03:11:29 PM 43.4136 -105.5914 352° North 393 452 32,000  Level Denver Center
Sun 03:12:31 PM 43.5175 -105.6108 352° North 394 453 32,000  Level Denver Center
Sun 03:13:33 PM 43.6378 -105.6356 352° North 392 451 32,000  Level Denver Center
Sun 03:14:35 PM 43.7408 -105.6567 352° North 392 451 32,000  Level Denver Center
Sun 03:15:37 PM 43.8622 -105.6803 352° North 393 452 32,000  Level Denver Center
Sun 03:16:39 PM 43.9650 -105.7008 352° North 392 451 32,000  Level Denver Center
Sun 03:17:41 PM 44.0847 -105.7253 352° North 390 449 32,000  Level Denver Center
Sun 03:18:43 PM 44.1869 -105.7450 352° North 388 447 32,000  Level Denver Center
Sun 03:19:45 PM 44.3064 -105.7700 351° North 388 447 32,000  Level Denver Center
Sun 03:20:23 PM 44.3750 -105.7836 352° North 387 445 32,000  Level Salt Lake Center
Sun 03:21:25 PM 44.4761 -105.8058 351° North 385 443 32,000  Level Salt Lake Center
Sun 03:22:27 PM 44.5783 -105.8244 353° North 385 443 32,000  Level Salt Lake Center
Sun 03:23:29 PM 44.6961 -105.8494 351° North 384 442 32,000  Level Salt Lake Center
Sun 03:24:31 PM 44.7969 -105.8719 351° North 383 441 32,000  Level Salt Lake Center
Sun 03:25:34 PM 44.9144 -105.8947 352° North 382 440 32,000  Level Salt Lake Center
Sun 03:26:36 PM 45.0144 -105.9175 351° North 381 438 32,000  Level Salt Lake Center
Sun 03:27:38 PM 45.1314 -105.9403 352° North 380 437 32,000  Level Salt Lake Center
Sun 03:28:40 PM 45.2328 -105.9622 351° North 383 441 32,000  Level Salt Lake Center
Sun 03:29:42 PM 45.3381 -105.9856 351° North 383 441 32,000  Level Salt Lake Center
Sun 03:30:44 PM 45.4433 -106.0081 351° North 383 441 32,000  Level Salt Lake Center
Sun 03:31:46 PM 45.5486 -106.0297 352° North 383 441 32,000  Level Salt Lake Center
Sun 03:32:48 PM 45.6747 -106.0569 351° North 382 440 32,000  Level Salt Lake Center
Sun 03:33:50 PM 45.7789 -106.0794 351° North 381 438 32,000  Level Salt Lake Center
Sun 03:34:52 PM 45.8833 -106.0983 353° North 380 437 32,000  Level Salt Lake Center
Sun 03:35:54 PM 45.9881 -106.1208 352° North 379 436 32,000  Level Salt Lake Center
Sun 03:37:00 PM 46.1067 -106.1477 351° North  Level FlightAware Approximate
Sun 03:37:58 PM 46.1961 -106.1650 351° North 379 436 32,000  Level Salt Lake Center
Sun 03:39:00 PM 46.3214 -106.1922 351° North 379 436 32,000  Level Salt Lake Center
Sun 03:40:02 PM 46.4261 -106.2169 351° North 379 436 32,000  Level Salt Lake Center
Sun 03:41:04 PM 46.5319 -106.2411 351° North 381 438 32,000  Level Salt Lake Center
Sun 03:42:06 PM 46.6367 -106.2639 352° North 382 440 32,000  Level Salt Lake Center
Sun 03:43:08 PM 46.7408 -106.2872 351° North 381 438 32,000  Level Salt Lake Center
Sun 03:44:10 PM 46.8447 -106.3094 352° North 380 437 32,000  Level Salt Lake Center
Sun 03:45:12 PM 46.9703 -106.3386 351° North 379 436 32,000  Level Salt Lake Center
Sun 03:46:14 PM 47.0739 -106.3617 351° North 379 436 32,000  Level Salt Lake Center
Sun 03:47:16 PM 47.1778 -106.3856 351° North 378 435 32,000  Level Salt Lake Center
Sun 03:48:18 PM 47.2817 -106.4089 351° North 378 435 32,000  Level Salt Lake Center
Sun 03:49:21 PM 47.3875 -106.4333 351° North 380 437 32,000  Level Salt Lake Center
Sun 03:50:22 PM 47.4914 -106.4569 351° North 380 437 32,000  Level Salt Lake Center
Sun 03:51:25 PM 47.6178 -106.4867 351° North 381 438 32,000  Level Salt Lake Center
Sun 03:52:27 PM 47.7231 -106.5106 351° North 381 438 32,000  Level Salt Lake Center
Sun 03:53:29 PM 47.8267 -106.5342 351° North 380 437 32,000  Level Salt Lake Center
Sun 03:54:31 PM 47.9303 -106.5603 350° North 379 436 32,000  Level Salt Lake Center
Sun 03:55:33 PM 48.0369 -106.5833 352° North 381 438 32,000  Level Salt Lake Center
Sun 03:56:35 PM 48.1422 -106.6092 351° North 384 442 32,000  Level Salt Lake Center
Sun 03:57:37 PM 48.2653 -106.6508 347° North 382 440 32,000  Level Salt Lake Center
Sun 03:58:39 PM 48.3650 -106.7008 342° North 381 438 32,000  Level Salt Lake Center
Sun 04:00:41 PM 48.5500 -106.8333 335° Northwest 380 437 32,000  Level Winnipeg Center
Sun 04:01:41 PM 48.6500 -106.8833 342° North 390 449 32,000  Level Winnipeg Center
Sun 04:02:41 PM 48.7500 -106.9333 342° North 390 449 32,000  Level Winnipeg Center
Sun 04:03:41 PM 48.8667 -106.9833 344° North 380 437 32,000  Level Winnipeg Center
Sun 04:04:41 PM 48.9667 -107.0167 348° North 390 449 32,000  Level Winnipeg Center
Sun 04:05:41 PM 49.0500 -107.1000 327° Northwest 390 449 32,000  Level Winnipeg Center
Sun 04:06:41 PM 49.1667 -107.1500 344° North 390 449 32,000  Level Winnipeg Center
Sun 04:07:41 PM 49.2667 -107.1833 348° North 390 449 32,000  Level Winnipeg Center
Sun 04:08:41 PM 49.3667 -107.2333 342° North 390 449 32,000  Level Winnipeg Center
Sun 04:09:41 PM 49.4833 -107.2833 344° North 390 449 32,000  Level Winnipeg Center
Sun 04:10:41 PM 49.5667 -107.3500 333° Northwest 390 449 32,000  Level Winnipeg Center
Sun 04:11:41 PM 49.6833 -107.4167 340° North 390 449 32,000  Level Winnipeg Center
Sun 04:12:41 PM 49.7833 -107.4500 348° North 390 449 32,000  Level Winnipeg Center
Sun 04:13:41 PM 49.8833 -107.5000 342° North 400 460 32,000  Level Winnipeg Center
Sun 04:14:41 PM 49.9833 -107.5500 342° North 390 449 32,000  Level Winnipeg Center
Sun 04:15:41 PM 50.0833 -107.6333 332° Northwest 390 449 32,000  Level Winnipeg Center
Sun 04:16:41 PM 50.2000 -107.6833 345° North 390 449 32,000  Level Winnipeg Center
Sun 04:17:41 PM 50.3000 -107.7000 354° North 390 449 32,000  Level Winnipeg Center
Sun 04:18:41 PM 50.4167 -107.7000 360° North 400 460 32,000  Level Winnipeg Center
Sun 04:19:41 PM 50.5167 -107.7000 360° North 400 460 32,000  Level Winnipeg Center
Sun 04:20:41 PM 50.6333 -107.6833 North 400 460 32,000  Level Winnipeg Center
Sun 04:21:41 PM 50.7333 -107.6833 360° North 400 460 32,000  Level Winnipeg Center
Sun 04:22:41 PM 50.8667 -107.6500 North 400 460 32,000 -550 Level Winnipeg Center
Sun 04:23:41 PM 50.9667 -107.6500 360° North 400 460 30,900 -1,450 Descending Winnipeg Center
Sun 04:24:41 PM 51.0833 -107.6500 360° North 400 460 29,100 -1,150 Descending Winnipeg Center
Sun 04:25:41 PM 51.1833 -107.6167 12° North 390 449 28,600 -1,300 Descending Winnipeg Center
Sun 04:26:41 PM 51.2833 -107.5833 12° North 380 437 26,500 -2,350 Descending Winnipeg Center
Sun 04:27:41 PM 51.3833 -107.5000 27° Northeast 380 437 23,900 -2,500 Descending Winnipeg Center
Sun 04:28:41 PM 51.4667 -107.4500 20° North 380 437 21,500 -2,550 Descending Winnipeg Center
Sun 04:29:41 PM 51.5667 -107.3833 23° Northeast 370 426 18,800 -2,500 Descending Winnipeg Center
Sun 04:30:41 PM 51.6667 -107.3333 17° North 340 391 16,500 -2,600 Descending Winnipeg Center
Sun 04:31:41 PM 51.7500 -107.2667 26° Northeast 330 380 13,600 -2,450 Descending Winnipeg Center
Sun 04:32:41 PM 51.8167 -107.2333 17° North 310 357 11,600 -1,900 Descending Winnipeg Center
Sun 04:33:41 PM 51.9000 -107.1667 26° Northeast 300 345 9,800 -1,900 Descending Winnipeg Center
Sun 04:34:41 PM 51.9667 -107.1167 25° Northeast 290 334 7,800 -1,950 Descending Winnipeg Center
Sun 04:35:41 PM 52.0333 -107.0500 32° Northeast 280 322 5,900 -1,750 Descending Winnipeg Center
Sun 04:36:41 PM 52.1167 -107.0000 20° North 270 311 4,300 -1,200 Descending Winnipeg Center
Sun 04:37:41 PM 52.1667 -106.9500 32° Northeast 250 288 3,500 -650 Descending Winnipeg Center
Sun 04:38:41 PM 52.2167 -106.8833 39° Northeast 220 253 3,000 -500 Descending Winnipeg Center

Login

Don't have an account? Register now (free) for customized features, flight alerts, and more!